sensor_id;sensor_type;location;lat;lon;timestamp;P1;durP1;ratioP1;P2;durP2;ratioP2
36355;SDS011;22384;54.302;18.596;2022-11-15T00:01:41;70.40;;;34.42;;
36355;SDS011;22384;54.302;18.596;2022-11-15T00:04:08;74.10;;;35.13;;
36355;SDS011;22384;54.302;18.596;2022-11-15T00:06:35;69.60;;;36.22;;
36355;SDS011;22384;54.302;18.596;2022-11-15T00:09:02;68.85;;;34.92;;
36355;SDS011;22384;54.302;18.596;2022-11-15T00:11:29;70.63;;;35.63;;
36355;SDS011;22384;54.302;18.596;2022-11-15T00:13:56;66.15;;;34.53;;
36355;SDS011;22384;54.302;18.596;2022-11-15T00:16:23;65.85;;;32.10;;
36355;SDS011;22384;54.302;18.596;2022-11-15T00:18:49;67.82;;;33.83;;
36355;SDS011;22384;54.302;18.596;2022-11-15T00:21:16;66.70;;;33.97;;
36355;SDS011;22384;54.302;18.596;2022-11-15T00:23:42;66.40;;;32.35;;
36355;SDS011;22384;54.302;18.596;2022-11-15T00:26:12;71.72;;;34.53;;
36355;SDS011;22384;54.302;18.596;2022-11-15T00:28:39;69.10;;;33.85;;
36355;SDS011;22384;54.302;18.596;2022-11-15T00:31:07;61.80;;;31.48;;
36355;SDS011;22384;54.302;18.596;2022-11-15T00:33:33;75.18;;;32.05;;
36355;SDS011;22384;54.302;18.596;2022-11-15T00:36:02;66.93;;;31.60;;
36355;SDS011;22384;54.302;18.596;2022-11-15T00:38:36;63.50;;;32.05;;
36355;SDS011;22384;54.302;18.596;2022-11-15T00:41:03;66.20;;;32.63;;
36355;SDS011;22384;54.302;18.596;2022-11-15T00:43:30;71.43;;;33.45;;
36355;SDS011;22384;54.302;18.596;2022-11-15T00:45:56;65.55;;;33.53;;
36355;SDS011;22384;54.302;18.596;2022-11-15T00:48:22;71.78;;;33.15;;
36355;SDS011;22384;54.302;18.596;2022-11-15T00:50:48;69.57;;;32.05;;
36355;SDS011;22384;54.302;18.596;2022-11-15T00:53:14;67.53;;;32.75;;
36355;SDS011;22384;54.302;18.596;2022-11-15T00:55:40;65.45;;;30.30;;
36355;SDS011;22384;54.302;18.596;2022-11-15T00:58:06;67.50;;;31.70;;
36355;SDS011;22384;54.302;18.596;2022-11-15T01:00:33;66.85;;;32.15;;
36355;SDS011;22384;54.302;18.596;2022-11-15T01:03:02;64.93;;;31.40;;
36355;SDS011;22384;54.302;18.596;2022-11-15T01:05:28;65.95;;;32.28;;
36355;SDS011;22384;54.302;18.596;2022-11-15T01:07:54;73.18;;;33.50;;
36355;SDS011;22384;54.302;18.596;2022-11-15T01:10:21;65.13;;;31.42;;
36355;SDS011;22384;54.302;18.596;2022-11-15T01:12:47;65.05;;;32.47;;
36355;SDS011;22384;54.302;18.596;2022-11-15T01:15:14;69.38;;;31.65;;
36355;SDS011;22384;54.302;18.596;2022-11-15T01:17:40;71.75;;;33.30;;
36355;SDS011;22384;54.302;18.596;2022-11-15T01:20:06;78.55;;;34.50;;
36355;SDS011;22384;54.302;18.596;2022-11-15T01:22:33;71.97;;;33.72;;
36355;SDS011;22384;54.302;18.596;2022-11-15T01:24:59;83.50;;;34.50;;
36355;SDS011;22384;54.302;18.596;2022-11-15T01:27:25;81.35;;;35.28;;
36355;SDS011;22384;54.302;18.596;2022-11-15T01:29:51;90.22;;;39.45;;
36355;SDS011;22384;54.302;18.596;2022-11-15T01:32:17;91.70;;;39.83;;
36355;SDS011;22384;54.302;18.596;2022-11-15T01:34:44;92.57;;;39.35;;
36355;SDS011;22384;54.302;18.596;2022-11-15T01:37:10;94.07;;;38.63;;
36355;SDS011;22384;54.302;18.596;2022-11-15T01:39:36;87.28;;;37.45;;
36355;SDS011;22384;54.302;18.596;2022-11-15T01:42:02;88.90;;;38.40;;
36355;SDS011;22384;54.302;18.596;2022-11-15T01:44:36;96.35;;;38.22;;
36355;SDS011;22384;54.302;18.596;2022-11-15T01:47:09;85.03;;;37.50;;
36355;SDS011;22384;54.302;18.596;2022-11-15T01:49:38;90.60;;;38.45;;
36355;SDS011;22384;54.302;18.596;2022-11-15T01:52:07;97.03;;;37.85;;
36355;SDS011;22384;54.302;18.596;2022-11-15T01:54:34;102.33;;;40.10;;
36355;SDS011;22384;54.302;18.596;2022-11-15T01:57:06;95.25;;;39.30;;
36355;SDS011;22384;54.302;18.596;2022-11-15T01:59:33;94.75;;;38.92;;
36355;SDS011;22384;54.302;18.596;2022-11-15T02:02:06;97.65;;;40.13;;
36355;SDS011;22384;54.302;18.596;2022-11-15T02:04:34;97.22;;;38.33;;
36355;SDS011;22384;54.302;18.596;2022-11-15T02:07:02;97.13;;;39.53;;
36355;SDS011;22384;54.302;18.596;2022-11-15T02:09:29;96.60;;;39.28;;
36355;SDS011;22384;54.302;18.596;2022-11-15T02:11:55;97.18;;;39.65;;
36355;SDS011;22384;54.302;18.596;2022-11-15T02:14:22;91.20;;;36.22;;
36355;SDS011;22384;54.302;18.596;2022-11-15T02:16:53;85.13;;;37.00;;
36355;SDS011;22384;54.302;18.596;2022-11-15T02:22:03;87.53;;;38.17;;
36355;SDS011;22384;54.302;18.596;2022-11-15T02:24:58;88.40;;;36.67;;
36355;SDS011;22384;54.302;18.596;2022-11-15T02:30:14;98.75;;;41.92;;
36355;SDS011;22384;54.302;18.596;2022-11-15T02:38:00;90.00;;;37.58;;
36355;SDS011;22384;54.302;18.596;2022-11-15T02:40:38;90.78;;;35.58;;
36355;SDS011;22384;54.302;18.596;2022-11-15T02:43:08;89.65;;;36.63;;
36355;SDS011;22384;54.302;18.596;2022-11-15T02:46:16;87.68;;;34.17;;
36355;SDS011;22384;54.302;18.596;2022-11-15T02:48:39;82.88;;;32.75;;
36355;SDS011;22384;54.302;18.596;2022-11-15T02:51:06;83.18;;;35.88;;
36355;SDS011;22384;54.302;18.596;2022-11-15T02:53:33;80.22;;;35.03;;
36355;SDS011;22384;54.302;18.596;2022-11-15T02:55:59;83.05;;;34.35;;
36355;SDS011;22384;54.302;18.596;2022-11-15T03:01:04;83.88;;;35.00;;
36355;SDS011;22384;54.302;18.596;2022-11-15T03:03:48;87.20;;;34.75;;
36355;SDS011;22384;54.302;18.596;2022-11-15T03:09:13;90.70;;;37.28;;
36355;SDS011;22384;54.302;18.596;2022-11-15T03:11:46;90.43;;;34.28;;
36355;SDS011;22384;54.302;18.596;2022-11-15T03:14:28;106.80;;;36.50;;
36355;SDS011;22384;54.302;18.596;2022-11-15T03:21:47;91.85;;;35.17;;
36355;SDS011;22384;54.302;18.596;2022-11-15T03:24:15;95.20;;;35.80;;
36355;SDS011;22384;54.302;18.596;2022-11-15T03:26:42;100.07;;;36.60;;
36355;SDS011;22384;54.302;18.596;2022-11-15T03:29:16;88.10;;;33.25;;
36355;SDS011;22384;54.302;18.596;2022-11-15T03:31:44;98.45;;;34.53;;
36355;SDS011;22384;54.302;18.596;2022-11-15T03:34:15;96.70;;;34.95;;
36355;SDS011;22384;54.302;18.596;2022-11-15T03:36:42;103.85;;;38.20;;
36355;SDS011;22384;54.302;18.596;2022-11-15T03:39:09;97.60;;;36.55;;
36355;SDS011;22384;54.302;18.596;2022-11-15T03:41:39;106.15;;;38.10;;
36355;SDS011;22384;54.302;18.596;2022-11-15T03:46:35;95.95;;;37.42;;
36355;SDS011;22384;54.302;18.596;2022-11-15T03:49:15;112.07;;;38.15;;
36355;SDS011;22384;54.302;18.596;2022-11-15T03:51:42;121.18;;;39.60;;
36355;SDS011;22384;54.302;18.596;2022-11-15T03:54:08;116.03;;;37.72;;
36355;SDS011;22384;54.302;18.596;2022-11-15T03:56:35;113.82;;;39.17;;
36355;SDS011;22384;54.302;18.596;2022-11-15T03:59:01;98.72;;;36.40;;
36355;SDS011;22384;54.302;18.596;2022-11-15T04:01:27;99.07;;;34.75;;
36355;SDS011;22384;54.302;18.596;2022-11-15T04:03:53;92.07;;;34.05;;
36355;SDS011;22384;54.302;18.596;2022-11-15T04:06:19;85.35;;;32.72;;
36355;SDS011;22384;54.302;18.596;2022-11-15T04:08:45;95.63;;;36.10;;
36355;SDS011;22384;54.302;18.596;2022-11-15T04:11:11;99.18;;;35.90;;
36355;SDS011;22384;54.302;18.596;2022-11-15T04:13:37;97.60;;;34.67;;
36355;SDS011;22384;54.302;18.596;2022-11-15T04:16:03;99.72;;;34.08;;
36355;SDS011;22384;54.302;18.596;2022-11-15T04:18:29;95.68;;;36.08;;
36355;SDS011;22384;54.302;18.596;2022-11-15T04:20:56;97.20;;;34.78;;
36355;SDS011;22384;54.302;18.596;2022-11-15T04:23:40;93.28;;;34.83;;
36355;SDS011;22384;54.302;18.596;2022-11-15T04:26:25;98.22;;;36.38;;
36355;SDS011;22384;54.302;18.596;2022-11-15T04:28:52;116.70;;;36.72;;
36355;SDS011;22384;54.302;18.596;2022-11-15T04:31:36;107.30;;;37.17;;
36355;SDS011;22384;54.302;18.596;2022-11-15T04:34:03;109.68;;;35.35;;
36355;SDS011;22384;54.302;18.596;2022-11-15T04:36:29;101.78;;;35.97;;
36355;SDS011;22384;54.302;18.596;2022-11-15T04:39:13;104.30;;;35.58;;
36355;SDS011;22384;54.302;18.596;2022-11-15T04:41:40;108.97;;;35.13;;
36355;SDS011;22384;54.302;18.596;2022-11-15T04:44:06;111.22;;;35.65;;
36355;SDS011;22384;54.302;18.596;2022-11-15T04:46:32;107.57;;;36.00;;
36355;SDS011;22384;54.302;18.596;2022-11-15T04:48:58;101.03;;;34.47;;
36355;SDS011;22384;54.302;18.596;2022-11-15T04:51:25;104.75;;;34.63;;
36355;SDS011;22384;54.302;18.596;2022-11-15T04:53:51;102.40;;;34.08;;
36355;SDS011;22384;54.302;18.596;2022-11-15T04:56:17;102.22;;;32.80;;
36355;SDS011;22384;54.302;18.596;2022-11-15T04:58:43;99.45;;;32.92;;
36355;SDS011;22384;54.302;18.596;2022-11-15T05:01:10;103.05;;;33.65;;
36355;SDS011;22384;54.302;18.596;2022-11-15T05:03:37;89.60;;;32.28;;
36355;SDS011;22384;54.302;18.596;2022-11-15T05:06:22;103.55;;;35.33;;
36355;SDS011;22384;54.302;18.596;2022-11-15T05:08:48;109.55;;;34.30;;
36355;SDS011;22384;54.302;18.596;2022-11-15T05:11:14;90.03;;;32.72;;
36355;SDS011;22384;54.302;18.596;2022-11-15T05:13:40;98.57;;;33.53;;
36355;SDS011;22384;54.302;18.596;2022-11-15T05:16:07;95.65;;;32.90;;
36355;SDS011;22384;54.302;18.596;2022-11-15T05:18:33;101.93;;;34.88;;
36355;SDS011;22384;54.302;18.596;2022-11-15T05:21:03;92.45;;;34.45;;
36355;SDS011;22384;54.302;18.596;2022-11-15T05:23:29;93.50;;;33.50;;
36355;SDS011;22384;54.302;18.596;2022-11-15T05:25:59;114.97;;;35.75;;
36355;SDS011;22384;54.302;18.596;2022-11-15T05:28:25;105.25;;;34.33;;
36355;SDS011;22384;54.302;18.596;2022-11-15T05:30:51;105.43;;;35.00;;
36355;SDS011;22384;54.302;18.596;2022-11-15T05:33:17;92.40;;;33.60;;
36355;SDS011;22384;54.302;18.596;2022-11-15T05:35:48;95.32;;;32.03;;
36355;SDS011;22384;54.302;18.596;2022-11-15T05:38:16;88.18;;;29.08;;
36355;SDS011;22384;54.302;18.596;2022-11-15T05:40:42;76.22;;;29.48;;
36355;SDS011;22384;54.302;18.596;2022-11-15T05:43:09;93.28;;;30.95;;
36355;SDS011;22384;54.302;18.596;2022-11-15T05:45:35;76.65;;;28.10;;
36355;SDS011;22384;54.302;18.596;2022-11-15T05:48:03;78.45;;;29.13;;
36355;SDS011;22384;54.302;18.596;2022-11-15T05:50:31;72.85;;;27.58;;
36355;SDS011;22384;54.302;18.596;2022-11-15T05:52:57;85.63;;;30.92;;
36355;SDS011;22384;54.302;18.596;2022-11-15T05:55:23;80.70;;;29.67;;
36355;SDS011;22384;54.302;18.596;2022-11-15T05:57:49;81.38;;;29.60;;
36355;SDS011;22384;54.302;18.596;2022-11-15T06:00:15;77.47;;;27.80;;
36355;SDS011;22384;54.302;18.596;2022-11-15T06:02:42;75.57;;;28.45;;
36355;SDS011;22384;54.302;18.596;2022-11-15T06:05:08;69.85;;;26.55;;
36355;SDS011;22384;54.302;18.596;2022-11-15T06:07:34;65.18;;;24.40;;
36355;SDS011;22384;54.302;18.596;2022-11-15T06:10:00;57.53;;;23.95;;
36355;SDS011;22384;54.302;18.596;2022-11-15T06:12:26;51.75;;;22.55;;
36355;SDS011;22384;54.302;18.596;2022-11-15T06:14:52;53.55;;;22.00;;
36355;SDS011;22384;54.302;18.596;2022-11-15T06:17:18;63.90;;;24.40;;
36355;SDS011;22384;54.302;18.596;2022-11-15T06:19:44;60.92;;;24.13;;
36355;SDS011;22384;54.302;18.596;2022-11-15T06:22:10;59.58;;;24.25;;
36355;SDS011;22384;54.302;18.596;2022-11-15T06:24:36;57.28;;;25.35;;
36355;SDS011;22384;54.302;18.596;2022-11-15T06:27:02;60.10;;;25.67;;
36355;SDS011;22384;54.302;18.596;2022-11-15T06:29:29;55.88;;;22.42;;
36355;SDS011;22384;54.302;18.596;2022-11-15T06:31:55;60.42;;;25.45;;
36355;SDS011;22384;54.302;18.596;2022-11-15T06:34:23;62.30;;;23.13;;
36355;SDS011;22384;54.302;18.596;2022-11-15T06:36:49;66.63;;;24.23;;
36355;SDS011;22384;54.302;18.596;2022-11-15T06:39:16;64.43;;;24.75;;
36355;SDS011;22384;54.302;18.596;2022-11-15T06:41:42;57.65;;;24.65;;
36355;SDS011;22384;54.302;18.596;2022-11-15T06:44:08;60.13;;;24.95;;
36355;SDS011;22384;54.302;18.596;2022-11-15T06:46:34;62.90;;;24.38;;
36355;SDS011;22384;54.302;18.596;2022-11-15T06:49:01;64.75;;;25.60;;
36355;SDS011;22384;54.302;18.596;2022-11-15T06:51:27;58.55;;;23.52;;
36355;SDS011;22384;54.302;18.596;2022-11-15T06:53:54;68.40;;;25.00;;
36355;SDS011;22384;54.302;18.596;2022-11-15T06:56:20;59.90;;;23.60;;
36355;SDS011;22384;54.302;18.596;2022-11-15T06:58:46;62.50;;;25.17;;
36355;SDS011;22384;54.302;18.596;2022-11-15T07:01:12;71.20;;;26.10;;
36355;SDS011;22384;54.302;18.596;2022-11-15T07:03:39;67.32;;;26.38;;
36355;SDS011;22384;54.302;18.596;2022-11-15T07:06:06;57.65;;;23.70;;
36355;SDS011;22384;54.302;18.596;2022-11-15T07:08:32;65.95;;;24.10;;
36355;SDS011;22384;54.302;18.596;2022-11-15T07:10:59;55.80;;;24.23;;
36355;SDS011;22384;54.302;18.596;2022-11-15T07:13:27;66.57;;;24.23;;
36355;SDS011;22384;54.302;18.596;2022-11-15T07:15:53;55.40;;;24.20;;
36355;SDS011;22384;54.302;18.596;2022-11-15T07:18:19;50.97;;;22.42;;
36355;SDS011;22384;54.302;18.596;2022-11-15T07:20:46;52.55;;;22.02;;
36355;SDS011;22384;54.302;18.596;2022-11-15T07:23:12;53.67;;;22.65;;
36355;SDS011;22384;54.302;18.596;2022-11-15T07:25:38;50.85;;;22.05;;
36355;SDS011;22384;54.302;18.596;2022-11-15T07:28:04;49.78;;;21.60;;
36355;SDS011;22384;54.302;18.596;2022-11-15T07:30:30;50.42;;;22.95;;
36355;SDS011;22384;54.302;18.596;2022-11-15T07:32:57;47.97;;;21.50;;
36355;SDS011;22384;54.302;18.596;2022-11-15T07:35:24;40.45;;;19.95;;
36355;SDS011;22384;54.302;18.596;2022-11-15T07:37:57;46.63;;;20.90;;
36355;SDS011;22384;54.302;18.596;2022-11-15T07:40:24;46.42;;;21.75;;
36355;SDS011;22384;54.302;18.596;2022-11-15T07:42:50;47.75;;;21.40;;
36355;SDS011;22384;54.302;18.596;2022-11-15T07:45:19;52.00;;;22.33;;
36355;SDS011;22384;54.302;18.596;2022-11-15T07:47:46;50.28;;;22.63;;
36355;SDS011;22384;54.302;18.596;2022-11-15T07:50:12;52.03;;;22.30;;
36355;SDS011;22384;54.302;18.596;2022-11-15T07:52:38;48.55;;;22.40;;
36355;SDS011;22384;54.302;18.596;2022-11-15T07:55:04;51.42;;;24.05;;
36355;SDS011;22384;54.302;18.596;2022-11-15T07:57:31;48.63;;;22.42;;
36355;SDS011;22384;54.302;18.596;2022-11-15T07:59:57;47.90;;;21.92;;
36355;SDS011;22384;54.302;18.596;2022-11-15T08:02:23;50.90;;;23.00;;
36355;SDS011;22384;54.302;18.596;2022-11-15T08:04:49;45.88;;;22.92;;
36355;SDS011;22384;54.302;18.596;2022-11-15T08:07:15;48.40;;;22.05;;
36355;SDS011;22384;54.302;18.596;2022-11-15T08:09:41;52.80;;;22.23;;
36355;SDS011;22384;54.302;18.596;2022-11-15T08:12:07;52.35;;;23.05;;
36355;SDS011;22384;54.302;18.596;2022-11-15T08:14:34;46.17;;;22.48;;
36355;SDS011;22384;54.302;18.596;2022-11-15T08:17:00;51.80;;;21.90;;
36355;SDS011;22384;54.302;18.596;2022-11-15T08:19:26;53.58;;;23.55;;
36355;SDS011;22384;54.302;18.596;2022-11-15T08:21:52;49.90;;;23.42;;
36355;SDS011;22384;54.302;18.596;2022-11-15T08:24:18;47.22;;;22.52;;
36355;SDS011;22384;54.302;18.596;2022-11-15T08:26:45;49.60;;;21.00;;
36355;SDS011;22384;54.302;18.596;2022-11-15T08:29:12;47.58;;;22.23;;
36355;SDS011;22384;54.302;18.596;2022-11-15T08:31:38;49.72;;;19.88;;
36355;SDS011;22384;54.302;18.596;2022-11-15T08:34:04;47.72;;;19.98;;
36355;SDS011;22384;54.302;18.596;2022-11-15T08:36:31;39.90;;;19.38;;
36355;SDS011;22384;54.302;18.596;2022-11-15T08:38:59;42.17;;;20.67;;
36355;SDS011;22384;54.302;18.596;2022-11-15T08:41:30;42.63;;;19.90;;
36355;SDS011;22384;54.302;18.596;2022-11-15T08:43:57;42.80;;;20.73;;
36355;SDS011;22384;54.302;18.596;2022-11-15T08:46:23;45.25;;;19.48;;
36355;SDS011;22384;54.302;18.596;2022-11-15T08:48:50;47.38;;;21.50;;
36355;SDS011;22384;54.302;18.596;2022-11-15T08:51:16;41.72;;;21.08;;
36355;SDS011;22384;54.302;18.596;2022-11-15T08:53:42;42.05;;;21.52;;
36355;SDS011;22384;54.302;18.596;2022-11-15T08:56:09;44.28;;;20.00;;
36355;SDS011;22384;54.302;18.596;2022-11-15T08:58:35;46.33;;;22.00;;
36355;SDS011;22384;54.302;18.596;2022-11-15T09:01:02;43.10;;;20.90;;
36355;SDS011;22384;54.302;18.596;2022-11-15T09:03:28;48.80;;;22.63;;
36355;SDS011;22384;54.302;18.596;2022-11-15T09:05:58;50.75;;;21.80;;
36355;SDS011;22384;54.302;18.596;2022-11-15T09:08:25;42.27;;;21.57;;
36355;SDS011;22384;54.302;18.596;2022-11-15T09:10:51;53.70;;;24.88;;
36355;SDS011;22384;54.302;18.596;2022-11-15T09:13:17;51.28;;;22.15;;
36355;SDS011;22384;54.302;18.596;2022-11-15T09:15:43;52.13;;;22.90;;
36355;SDS011;22384;54.302;18.596;2022-11-15T09:18:09;50.95;;;22.83;;
36355;SDS011;22384;54.302;18.596;2022-11-15T09:20:35;49.50;;;22.85;;
36355;SDS011;22384;54.302;18.596;2022-11-15T09:23:01;49.92;;;21.20;;
36355;SDS011;22384;54.302;18.596;2022-11-15T09:25:28;47.08;;;21.17;;
36355;SDS011;22384;54.302;18.596;2022-11-15T09:27:55;49.47;;;22.20;;
36355;SDS011;22384;54.302;18.596;2022-11-15T09:30:22;42.85;;;20.10;;
36355;SDS011;22384;54.302;18.596;2022-11-15T09:32:48;46.90;;;20.23;;
36355;SDS011;22384;54.302;18.596;2022-11-15T09:35:14;37.22;;;19.38;;
36355;SDS011;22384;54.302;18.596;2022-11-15T09:37:40;40.15;;;18.08;;
36355;SDS011;22384;54.302;18.596;2022-11-15T09:40:09;39.25;;;19.17;;
36355;SDS011;22384;54.302;18.596;2022-11-15T09:50:31;43.83;;;19.95;;
36355;SDS011;22384;54.302;18.596;2022-11-15T09:52:57;41.30;;;19.45;;
36355;SDS011;22384;54.302;18.596;2022-11-15T09:55:36;46.13;;;20.77;;
36355;SDS011;22384;54.302;18.596;2022-11-15T09:58:18;34.40;;;16.90;;
36355;SDS011;22384;54.302;18.596;2022-11-15T10:00:47;39.15;;;18.85;;
36355;SDS011;22384;54.302;18.596;2022-11-15T10:03:25;44.47;;;21.50;;
36355;SDS011;22384;54.302;18.596;2022-11-15T10:05:53;42.85;;;20.63;;
36355;SDS011;22384;54.302;18.596;2022-11-15T10:11:07;44.70;;;21.27;;
36355;SDS011;22384;54.302;18.596;2022-11-15T10:13:36;48.03;;;21.17;;
36355;SDS011;22384;54.302;18.596;2022-11-15T10:24:06;45.60;;;20.25;;
36355;SDS011;22384;54.302;18.596;2022-11-15T10:26:36;45.67;;;22.27;;
36355;SDS011;22384;54.302;18.596;2022-11-15T10:29:02;44.40;;;20.90;;
36355;SDS011;22384;54.302;18.596;2022-11-15T10:31:28;49.42;;;21.63;;
36355;SDS011;22384;54.302;18.596;2022-11-15T10:34:13;49.28;;;22.60;;
36355;SDS011;22384;54.302;18.596;2022-11-15T10:36:43;52.97;;;24.55;;
36355;SDS011;22384;54.302;18.596;2022-11-15T10:39:11;57.00;;;23.85;;
36355;SDS011;22384;54.302;18.596;2022-11-15T10:41:38;49.75;;;22.08;;
36355;SDS011;22384;54.302;18.596;2022-11-15T10:46:46;51.13;;;22.55;;
36355;SDS011;22384;54.302;18.596;2022-11-15T10:49:17;51.80;;;24.98;;
36355;SDS011;22384;54.302;18.596;2022-11-15T10:51:48;51.97;;;23.88;;
36355;SDS011;22384;54.302;18.596;2022-11-15T10:54:38;48.03;;;22.90;;
36355;SDS011;22384;54.302;18.596;2022-11-15T10:57:04;56.25;;;24.92;;
36355;SDS011;22384;54.302;18.596;2022-11-15T10:59:31;56.00;;;24.45;;
36355;SDS011;22384;54.302;18.596;2022-11-15T11:01:58;52.53;;;24.60;;
36355;SDS011;22384;54.302;18.596;2022-11-15T11:04:25;50.70;;;23.63;;
36355;SDS011;22384;54.302;18.596;2022-11-15T11:06:56;56.40;;;23.40;;
36355;SDS011;22384;54.302;18.596;2022-11-15T11:11:54;52.35;;;24.17;;
36355;SDS011;22384;54.302;18.596;2022-11-15T11:14:22;52.17;;;24.23;;
36355;SDS011;22384;54.302;18.596;2022-11-15T11:16:55;51.08;;;24.02;;
36355;SDS011;22384;54.302;18.596;2022-11-15T11:30:06;49.25;;;23.55;;
36355;SDS011;22384;54.302;18.596;2022-11-15T11:35:14;51.28;;;23.70;;
36355;SDS011;22384;54.302;18.596;2022-11-15T11:40:41;56.40;;;24.73;;
36355;SDS011;22384;54.302;18.596;2022-11-15T11:45:48;48.78;;;23.35;;
36355;SDS011;22384;54.302;18.596;2022-11-15T11:48:22;53.75;;;24.90;;
36355;SDS011;22384;54.302;18.596;2022-11-15T11:50:49;53.58;;;26.95;;
36355;SDS011;22384;54.302;18.596;2022-11-15T11:56:13;58.05;;;25.45;;
36355;SDS011;22384;54.302;18.596;2022-11-15T11:58:44;55.65;;;25.75;;
36355;SDS011;22384;54.302;18.596;2022-11-15T12:01:16;62.15;;;27.17;;
36355;SDS011;22384;54.302;18.596;2022-11-15T12:03:52;66.57;;;26.45;;
36355;SDS011;22384;54.302;18.596;2022-11-15T12:06:33;55.42;;;24.90;;
36355;SDS011;22384;54.302;18.596;2022-11-15T12:09:07;60.65;;;26.98;;
36355;SDS011;22384;54.302;18.596;2022-11-15T12:12:00;56.70;;;25.90;;
36355;SDS011;22384;54.302;18.596;2022-11-15T12:14:29;58.97;;;26.65;;
36355;SDS011;22384;54.302;18.596;2022-11-15T12:16:58;66.20;;;27.27;;
36355;SDS011;22384;54.302;18.596;2022-11-15T12:19:25;62.88;;;27.00;;
36355;SDS011;22384;54.302;18.596;2022-11-15T12:22:02;54.85;;;26.23;;
36355;SDS011;22384;54.302;18.596;2022-11-15T12:25:04;75.38;;;37.35;;
36355;SDS011;22384;54.302;18.596;2022-11-15T12:27:33;66.00;;;30.92;;
36355;SDS011;22384;54.302;18.596;2022-11-15T12:30:03;62.78;;;27.95;;
36355;SDS011;22384;54.302;18.596;2022-11-15T12:32:35;68.38;;;29.02;;
36355;SDS011;22384;54.302;18.596;2022-11-15T12:35:03;60.17;;;27.58;;
36355;SDS011;22384;54.302;18.596;2022-11-15T12:37:34;62.05;;;27.35;;
36355;SDS011;22384;54.302;18.596;2022-11-15T12:45:43;61.63;;;28.02;;
36355;SDS011;22384;54.302;18.596;2022-11-15T12:56:22;69.32;;;26.80;;
36355;SDS011;22384;54.302;18.596;2022-11-15T12:58:45;71.25;;;29.77;;
36355;SDS011;22384;54.302;18.596;2022-11-15T13:04:07;63.40;;;27.45;;
36355;SDS011;22384;54.302;18.596;2022-11-15T13:11:43;63.83;;;27.23;;
36355;SDS011;22384;54.302;18.596;2022-11-15T13:17:00;68.45;;;30.00;;
36355;SDS011;22384;54.302;18.596;2022-11-15T13:19:26;70.72;;;30.30;;
36355;SDS011;22384;54.302;18.596;2022-11-15T13:21:52;70.35;;;29.38;;
36355;SDS011;22384;54.302;18.596;2022-11-15T13:24:38;72.45;;;29.60;;
36355;SDS011;22384;54.302;18.596;2022-11-15T13:27:18;71.68;;;29.92;;
36355;SDS011;22384;54.302;18.596;2022-11-15T13:29:45;78.25;;;30.05;;
36355;SDS011;22384;54.302;18.596;2022-11-15T13:32:13;68.95;;;29.13;;
36355;SDS011;22384;54.302;18.596;2022-11-15T13:34:44;85.22;;;32.78;;
36355;SDS011;22384;54.302;18.596;2022-11-15T13:37:33;76.28;;;29.40;;
36355;SDS011;22384;54.302;18.596;2022-11-15T13:40:16;70.82;;;27.73;;
36355;SDS011;22384;54.302;18.596;2022-11-15T13:42:44;66.07;;;25.33;;
36355;SDS011;22384;54.302;18.596;2022-11-15T13:45:13;63.42;;;25.10;;
36355;SDS011;22384;54.302;18.596;2022-11-15T13:47:39;61.47;;;25.58;;
36355;SDS011;22384;54.302;18.596;2022-11-15T13:50:05;64.13;;;26.60;;
36355;SDS011;22384;54.302;18.596;2022-11-15T13:52:33;62.17;;;25.65;;
36355;SDS011;22384;54.302;18.596;2022-11-15T14:00:00;66.35;;;25.77;;
36355;SDS011;22384;54.302;18.596;2022-11-15T14:02:29;54.55;;;25.02;;
36355;SDS011;22384;54.302;18.596;2022-11-15T14:04:57;56.80;;;24.40;;
36355;SDS011;22384;54.302;18.596;2022-11-15T14:07:24;55.90;;;24.70;;
36355;SDS011;22384;54.302;18.596;2022-11-15T14:09:51;52.00;;;24.50;;
36355;SDS011;22384;54.302;18.596;2022-11-15T14:12:35;54.55;;;23.30;;
36355;SDS011;22384;54.302;18.596;2022-11-15T14:15:18;48.80;;;21.55;;
36355;SDS011;22384;54.302;18.596;2022-11-15T14:17:45;42.45;;;20.90;;
36355;SDS011;22384;54.302;18.596;2022-11-15T14:20:31;47.47;;;21.90;;
36355;SDS011;22384;54.302;18.596;2022-11-15T14:23:25;47.58;;;21.48;;
36355;SDS011;22384;54.302;18.596;2022-11-15T14:25:51;52.13;;;22.60;;
36355;SDS011;22384;54.302;18.596;2022-11-15T14:30:50;47.53;;;23.05;;
36355;SDS011;22384;54.302;18.596;2022-11-15T14:35:46;49.10;;;21.95;;
36355;SDS011;22384;54.302;18.596;2022-11-15T14:38:12;47.10;;;21.20;;
36355;SDS011;22384;54.302;18.596;2022-11-15T14:40:39;55.08;;;28.48;;
36355;SDS011;22384;54.302;18.596;2022-11-15T14:43:07;54.67;;;26.65;;
36355;SDS011;22384;54.302;18.596;2022-11-15T14:45:34;50.35;;;24.33;;
36355;SDS011;22384;54.302;18.596;2022-11-15T14:48:00;57.97;;;21.48;;
36355;SDS011;22384;54.302;18.596;2022-11-15T14:50:26;52.45;;;21.27;;
36355;SDS011;22384;54.302;18.596;2022-11-15T14:52:53;44.78;;;19.13;;
36355;SDS011;22384;54.302;18.596;2022-11-15T14:55:26;46.28;;;20.23;;
36355;SDS011;22384;54.302;18.596;2022-11-15T14:57:57;53.00;;;20.42;;
36355;SDS011;22384;54.302;18.596;2022-11-15T15:00:23;38.40;;;19.60;;
36355;SDS011;22384;54.302;18.596;2022-11-15T15:02:50;42.15;;;17.95;;
36355;SDS011;22384;54.302;18.596;2022-11-15T15:07:43;42.08;;;18.42;;
36355;SDS011;22384;54.302;18.596;2022-11-15T15:10:10;50.42;;;25.58;;
36355;SDS011;22384;54.302;18.596;2022-11-15T15:12:36;45.08;;;21.00;;
36355;SDS011;22384;54.302;18.596;2022-11-15T15:15:03;60.20;;;25.40;;
36355;SDS011;22384;54.302;18.596;2022-11-15T15:17:29;53.13;;;24.05;;
36355;SDS011;22384;54.302;18.596;2022-11-15T15:19:55;65.05;;;32.00;;
36355;SDS011;22384;54.302;18.596;2022-11-15T15:22:21;65.03;;;33.10;;
36355;SDS011;22384;54.302;18.596;2022-11-15T15:24:50;64.05;;;30.77;;
36355;SDS011;22384;54.302;18.596;2022-11-15T15:27:16;54.05;;;23.75;;
36355;SDS011;22384;54.302;18.596;2022-11-15T15:29:42;46.88;;;20.20;;
36355;SDS011;22384;54.302;18.596;2022-11-15T15:32:10;50.28;;;22.27;;
36355;SDS011;22384;54.302;18.596;2022-11-15T15:34:36;52.30;;;22.35;;
36355;SDS011;22384;54.302;18.596;2022-11-15T15:37:19;54.05;;;24.67;;
36355;SDS011;22384;54.302;18.596;2022-11-15T15:39:53;50.58;;;23.73;;
36355;SDS011;22384;54.302;18.596;2022-11-15T15:42:20;80.87;;;38.20;;
36355;SDS011;22384;54.302;18.596;2022-11-15T15:44:47;63.30;;;34.15;;
36355;SDS011;22384;54.302;18.596;2022-11-15T15:47:13;75.88;;;35.63;;
36355;SDS011;22384;54.302;18.596;2022-11-15T15:49:41;66.70;;;30.02;;
36355;SDS011;22384;54.302;18.596;2022-11-15T15:52:07;85.45;;;35.90;;
36355;SDS011;22384;54.302;18.596;2022-11-15T15:54:33;70.78;;;31.40;;
36355;SDS011;22384;54.302;18.596;2022-11-15T15:56:59;50.78;;;25.23;;
36355;SDS011;22384;54.302;18.596;2022-11-15T15:59:25;48.85;;;22.77;;
36355;SDS011;22384;54.302;18.596;2022-11-15T16:01:51;46.30;;;22.83;;
36355;SDS011;22384;54.302;18.596;2022-11-15T16:04:17;66.40;;;33.85;;